createdAt,value
2023-03-06T00:01:50.433Z,32.33
2023-03-06T00:03:52.251Z,32.10
2023-03-06T00:05:54.968Z,30.10
2023-03-06T00:07:56.703Z,28.58
2023-03-06T00:09:58.123Z,27.38
2023-03-06T00:11:59.650Z,27.08
2023-03-06T00:14:01.179Z,26.88
2023-03-06T00:16:02.628Z,26.58
2023-03-06T00:18:05.931Z,27.17
2023-03-06T00:20:08.632Z,30.95
2023-03-06T00:22:13.788Z,35.17
2023-03-06T00:24:15.752Z,32.65
2023-03-06T00:26:17.339Z,29.13
2023-03-06T00:28:18.825Z,29.58
2023-03-06T00:30:22.895Z,28.70
2023-03-06T00:32:25.563Z,28.33
2023-03-06T00:34:26.968Z,29.27
2023-03-06T00:36:28.514Z,29.73
2023-03-06T00:38:30.011Z,28.23
2023-03-06T00:40:31.433Z,27.60
2023-03-06T00:42:33.008Z,29.42
2023-03-06T00:44:34.536Z,29.38
2023-03-06T00:46:35.965Z,29.23
2023-03-06T00:48:37.702Z,29.70
2023-03-06T00:50:39.222Z,27.67
2023-03-06T00:52:40.660Z,26.45
2023-03-06T00:54:42.335Z,26.50
2023-03-06T00:56:43.882Z,27.38
2023-03-06T00:58:45.610Z,27.90
2023-03-06T01:00:47.145Z,28.33
2023-03-06T01:02:48.655Z,26.75
2023-03-06T01:04:50.196Z,26.70
2023-03-06T01:06:52.053Z,27.30
2023-03-06T01:08:53.569Z,26.95
2023-03-06T01:10:55.008Z,28.27
2023-03-06T01:12:56.983Z,26.00
2023-03-06T01:14:58.612Z,26.10
2023-03-06T01:17:00.116Z,27.65
2023-03-06T01:19:03.421Z,27.42
2023-03-06T01:21:05.930Z,27.70
2023-03-06T01:23:07.367Z,26.98
2023-03-06T01:25:09.482Z,31.30
2023-03-06T01:27:11.025Z,32.78
2023-03-06T01:29:12.484Z,33.13
2023-03-06T01:31:14.009Z,38.40
2023-03-06T01:33:15.654Z,38.47
2023-03-06T01:35:17.281Z,41.40
2023-03-06T01:37:19.018Z,43.08
2023-03-06T01:39:20.543Z,39.90
2023-03-06T01:41:22.046Z,45.42
2023-03-06T01:43:26.338Z,43.58
2023-03-06T01:45:27.732Z,39.30
2023-03-06T01:47:29.417Z,44.28
2023-03-06T01:49:39.029Z,41.28
2023-03-06T01:52:03.689Z,40.72
2023-03-06T01:54:11.383Z,40.30
2023-03-06T01:56:13.900Z,42.92
2023-03-06T01:58:18.459Z,44.83
2023-03-06T02:00:25.226Z,40.63
2023-03-06T02:02:26.878Z,41.85
2023-03-06T02:04:29.567Z,38.63
2023-03-06T02:06:30.996Z,42.83
2023-03-06T02:08:33.370Z,40.70
2023-03-06T02:10:34.892Z,38.60
2023-03-06T02:12:36.408Z,37.30
2023-03-06T02:14:39.516Z,36.17
2023-03-06T02:16:42.252Z,38.78
2023-03-06T02:18:45.617Z,35.33
2023-03-06T02:20:51.922Z,39.20
2023-03-06T02:23:12.221Z,34.63
2023-03-06T02:25:32.452Z,35.08
2023-03-06T02:27:34.290Z,37.70
2023-03-06T02:29:35.695Z,34.70
2023-03-06T02:31:37.123Z,34.95
2023-03-06T02:33:38.593Z,34.83
2023-03-06T02:35:43.576Z,35.60
2023-03-06T02:37:45.524Z,38.22
2023-03-06T02:39:52.073Z,39.22
2023-03-06T02:41:53.966Z,39.15
2023-03-06T02:43:55.406Z,44.25
2023-03-06T02:45:57.465Z,43.58
2023-03-06T02:47:58.984Z,41.47
2023-03-06T02:50:00.400Z,41.75
2023-03-06T02:52:01.902Z,41.35
2023-03-06T02:54:03.492Z,40.00
2023-03-06T02:56:05.147Z,40.22
2023-03-06T02:58:07.049Z,41.03
2023-03-06T03:00:09.766Z,41.35
2023-03-06T03:02:11.200Z,42.60
2023-03-06T03:04:12.868Z,43.03
2023-03-06T03:06:14.404Z,50.53
2023-03-06T03:08:15.839Z,47.58
2023-03-06T03:10:17.308Z,54.03
2023-03-06T03:12:18.798Z,56.47
2023-03-06T03:14:20.286Z,51.20
2023-03-06T03:16:21.820Z,49.60
2023-03-06T03:18:23.337Z,47.05
2023-03-06T03:20:24.796Z,46.72
2023-03-06T03:22:26.451Z,48.10
2023-03-06T03:24:28.046Z,48.40
2023-03-06T03:26:29.524Z,48.38
2023-03-06T03:28:31.196Z,50.13
2023-03-06T03:30:33.194Z,49.10
2023-03-06T03:32:34.672Z,46.60
2023-03-06T03:34:36.238Z,52.42
2023-03-06T03:36:37.708Z,61.80
2023-03-06T03:38:39.155Z,56.88
2023-03-06T03:40:40.823Z,60.55
2023-03-06T03:42:42.332Z,55.45
2023-03-06T03:44:43.875Z,57.50
2023-03-06T03:46:45.458Z,57.45
2023-03-06T03:48:47.225Z,58.92
2023-03-06T03:50:48.657Z,60.80
2023-03-06T03:52:50.086Z,60.83
2023-03-06T03:54:51.480Z,60.00
2023-03-06T03:56:52.864Z,57.17
2023-03-06T03:58:54.511Z,57.78
2023-03-06T04:00:56.131Z,57.63
2023-03-06T04:02:57.542Z,51.78
2023-03-06T04:04:59.152Z,53.97
2023-03-06T04:07:00.599Z,55.03
2023-03-06T04:09:02.022Z,53.25
2023-03-06T04:11:03.746Z,53.70
2023-03-06T04:13:07.514Z,53.47
2023-03-06T04:15:10.557Z,51.38
2023-03-06T04:17:12.029Z,53.38
2023-03-06T04:19:13.527Z,51.45
2023-03-06T04:21:14.939Z,50.25
2023-03-06T04:23:17.653Z,50.05
2023-03-06T04:25:19.053Z,47.15
2023-03-06T04:27:20.498Z,47.38
2023-03-06T04:29:22.014Z,45.30
2023-03-06T04:31:23.555Z,46.50
2023-03-06T04:33:25.031Z,47.75
2023-03-06T04:35:26.917Z,47.15
2023-03-06T04:37:28.370Z,47.95
2023-03-06T04:39:29.772Z,46.00
2023-03-06T04:41:31.336Z,47.60
2023-03-06T04:43:33.088Z,48.22
2023-03-06T04:45:35.070Z,47.28
2023-03-06T04:47:37.068Z,46.10
2023-03-06T04:49:38.601Z,45.55
2023-03-06T04:51:40.004Z,44.45
2023-03-06T04:53:41.555Z,44.25
2023-03-06T04:55:42.975Z,43.03
2023-03-06T04:57:46.801Z,41.72
2023-03-06T04:59:48.556Z,43.47
2023-03-06T05:01:50.012Z,46.03
2023-03-06T05:03:51.455Z,44.15
2023-03-06T05:05:52.905Z,46.13
2023-03-06T05:07:54.580Z,48.22
2023-03-06T05:09:56.196Z,45.30
2023-03-06T05:11:57.578Z,45.55
2023-03-06T05:13:58.973Z,44.78
2023-03-06T05:16:05.321Z,44.28
2023-03-06T05:18:06.864Z,43.47
2023-03-06T05:20:10.563Z,44.28
2023-03-06T05:22:12.067Z,42.85
2023-03-06T05:24:13.492Z,43.67
2023-03-06T05:26:15.548Z,43.50
2023-03-06T05:28:16.963Z,43.95
2023-03-06T05:30:18.454Z,45.35
2023-03-06T05:32:20.215Z,47.03
2023-03-06T05:34:21.696Z,45.72
2023-03-06T05:36:23.175Z,46.78
2023-03-06T05:38:24.721Z,46.92
2023-03-06T05:40:26.441Z,56.55
2023-03-06T05:42:30.734Z,66.13
2023-03-06T05:44:33.195Z,84.47
2023-03-06T05:46:34.567Z,74.47
2023-03-06T05:48:36.589Z,84.28
2023-03-06T05:50:38.556Z,80.28
2023-03-06T05:52:40.211Z,75.80
2023-03-06T05:54:41.600Z,69.15
2023-03-06T05:56:43.242Z,55.20
2023-03-06T05:58:44.740Z,46.63
2023-03-06T06:00:46.128Z,37.13
2023-03-06T06:02:47.649Z,33.28
2023-03-06T06:04:49.093Z,31.83
2023-03-06T06:06:59.320Z,31.05
2023-03-06T06:09:00.720Z,29.42
2023-03-06T06:11:04.911Z,29.83
2023-03-06T06:13:06.840Z,28.15
2023-03-06T06:15:08.739Z,28.58
2023-03-06T06:17:10.216Z,29.83
2023-03-06T06:19:11.817Z,33.47
2023-03-06T06:21:14.420Z,37.45
2023-03-06T06:23:15.872Z,38.17
2023-03-06T06:25:17.407Z,39.97
2023-03-06T06:27:18.821Z,40.72
2023-03-06T06:29:20.952Z,38.85
2023-03-06T06:31:22.507Z,36.05
2023-03-06T06:33:24.257Z,36.85
2023-03-06T06:35:26.626Z,34.13
2023-03-06T06:37:28.052Z,32.85
2023-03-06T06:39:29.805Z,31.45
2023-03-06T06:41:50.723Z,30.95
2023-03-06T06:43:53.092Z,31.05
2023-03-06T06:46:08.885Z,29.35
2023-03-06T06:48:17.540Z,30.15
2023-03-06T06:50:19.548Z,30.90
2023-03-06T06:52:22.052Z,33.88
2023-03-06T06:54:23.689Z,44.92
2023-03-06T06:56:25.154Z,56.33
2023-03-06T06:58:26.756Z,65.43
2023-03-06T07:00:28.418Z,83.13
2023-03-06T07:02:29.867Z,46.42
2023-03-06T07:04:31.379Z,39.25
2023-03-06T07:06:32.825Z,42.88
2023-03-06T07:08:35.218Z,38.83
2023-03-06T07:10:37.698Z,39.15
2023-03-06T07:12:39.541Z,40.58
2023-03-06T07:14:40.946Z,42.40
2023-03-06T07:16:42.466Z,38.13
2023-03-06T07:18:44.495Z,46.33
2023-03-06T07:20:45.875Z,39.47
2023-03-06T07:22:51.377Z,37.83
2023-03-06T07:24:53.180Z,33.63
2023-03-06T07:26:54.818Z,33.45
2023-03-06T07:28:56.461Z,32.42
2023-03-06T07:30:57.960Z,33.65
2023-03-06T07:32:59.840Z,37.58
2023-03-06T07:35:18.973Z,36.00
2023-03-06T07:37:21.412Z,34.65
2023-03-06T07:39:22.865Z,34.83
2023-03-06T07:41:24.304Z,36.40
2023-03-06T07:43:25.693Z,38.03
2023-03-06T07:45:27.319Z,37.40
2023-03-06T07:47:28.745Z,36.67
2023-03-06T07:49:30.172Z,36.78
2023-03-06T07:51:31.642Z,35.70
2023-03-06T07:53:34.128Z,36.00
2023-03-06T07:55:35.550Z,35.75
2023-03-06T07:57:38.039Z,36.08
2023-03-06T07:59:39.648Z,36.03
2023-03-06T08:01:41.068Z,38.63
2023-03-06T08:03:42.796Z,39.28
2023-03-06T08:05:44.870Z,39.97
2023-03-06T08:07:46.277Z,41.15
2023-03-06T08:09:48.627Z,44.58
2023-03-06T08:11:50.097Z,41.35
2023-03-06T08:13:52.248Z,47.22
2023-03-06T08:15:54.619Z,46.95
2023-03-06T08:17:56.125Z,51.35
2023-03-06T08:19:57.643Z,43.20
2023-03-06T08:21:59.302Z,46.05
2023-03-06T08:24:00.901Z,43.97
2023-03-06T08:26:05.405Z,52.25
2023-03-06T08:28:06.914Z,46.90
2023-03-06T08:30:09.124Z,47.17
2023-03-06T08:32:11.912Z,44.42
2023-03-06T08:34:17.817Z,43.05
2023-03-06T08:36:19.478Z,46.72
2023-03-06T08:38:20.882Z,44.40
2023-03-06T08:40:22.362Z,45.78
2023-03-06T08:42:23.955Z,43.33
2023-03-06T08:44:25.372Z,45.30
2023-03-06T08:46:29.244Z,47.58
2023-03-06T08:48:30.962Z,44.85
2023-03-06T08:50:32.420Z,43.65
2023-03-06T08:52:33.919Z,46.75
2023-03-06T08:54:35.800Z,47.88
2023-03-06T08:56:37.271Z,47.55
2023-03-06T08:58:38.909Z,44.05
2023-03-06T09:00:40.603Z,43.22
2023-03-06T09:02:42.136Z,44.20
2023-03-06T09:04:43.624Z,54.67
2023-03-06T09:06:45.525Z,41.42
2023-03-06T09:08:46.897Z,36.75
2023-03-06T09:10:48.772Z,37.17
2023-03-06T09:12:53.144Z,37.75
2023-03-06T09:14:55.893Z,35.88
2023-03-06T09:16:57.518Z,35.80
2023-03-06T09:18:59.123Z,38.65
2023-03-06T09:21:00.984Z,32.60
2023-03-06T09:23:02.586Z,36.55
2023-03-06T09:25:05.769Z,32.92
2023-03-06T09:27:07.229Z,43.08
2023-03-06T09:29:08.875Z,38.65
2023-03-06T09:31:13.306Z,41.35
2023-03-06T09:33:15.278Z,37.85
2023-03-06T09:35:17.201Z,33.78
2023-03-06T09:37:19.197Z,32.40
2023-03-06T09:39:20.584Z,35.95
2023-03-06T09:41:24.808Z,40.60
2023-03-06T09:43:32.251Z,38.20
2023-03-06T09:45:36.931Z,33.33
2023-03-06T09:47:45.131Z,33.65
2023-03-06T09:50:04.785Z,35.42
2023-03-06T09:52:42.173Z,33.63
2023-03-06T09:54:55.516Z,40.08
2023-03-06T09:56:57.314Z,34.28
2023-03-06T09:59:22.865Z,32.53
2023-03-06T10:01:26.041Z,31.27
2023-03-06T10:03:48.521Z,33.90
2023-03-06T10:06:17.997Z,34.35
2023-03-06T10:08:22.371Z,37.97
2023-03-06T10:10:27.904Z,31.48
2023-03-06T10:12:35.206Z,32.85
2023-03-06T10:14:43.246Z,31.40
2023-03-06T10:16:44.877Z,34.00
2023-03-06T10:18:46.367Z,31.15
2023-03-06T10:20:58.309Z,36.72
2023-03-06T10:23:39.651Z,33.53
2023-03-06T10:26:03.454Z,29.80
2023-03-06T10:28:18.261Z,24.27
2023-03-06T10:30:37.786Z,25.40
2023-03-06T10:32:52.941Z,20.98
2023-03-06T10:34:59.291Z,19.02
2023-03-06T10:37:13.165Z,15.70
2023-03-06T10:39:21.275Z,17.13
2023-03-06T10:41:24.806Z,28.60
2023-03-06T10:43:26.481Z,16.45
2023-03-06T10:45:28.718Z,15.05
2023-03-06T10:47:33.106Z,16.48
2023-03-06T10:49:37.094Z,18.02
2023-03-06T10:51:38.705Z,19.15
2023-03-06T10:53:56.632Z,18.92
2023-03-06T10:56:01.750Z,19.50
2023-03-06T10:58:19.907Z,21.70
2023-03-06T11:00:30.397Z,20.67
2023-03-06T11:02:34.549Z,24.52
2023-03-06T11:04:36.966Z,20.65
2023-03-06T11:06:38.372Z,21.85
2023-03-06T11:08:41.919Z,24.85
2023-03-06T11:10:55.802Z,22.17
2023-03-06T11:13:05.770Z,23.15
2023-03-06T11:15:23.333Z,19.73
2023-03-06T11:17:30.259Z,19.67
2023-03-06T11:19:32.362Z,15.68
2023-03-06T11:21:35.730Z,15.18
2023-03-06T11:23:45.835Z,15.90
2023-03-06T11:25:56.436Z,16.33
2023-03-06T11:28:03.650Z,17.13
2023-03-06T11:30:35.045Z,19.40
2023-03-06T11:32:47.348Z,18.52
2023-03-06T11:34:57.409Z,19.65
2023-03-06T11:37:08.456Z,17.67
2023-03-06T11:39:28.143Z,15.90
2023-03-06T11:41:52.793Z,20.90
2023-03-06T11:44:17.299Z,22.95
2023-03-06T11:46:37.549Z,21.20
2023-03-06T11:48:48.359Z,21.13
2023-03-06T11:50:59.732Z,22.17
2023-03-06T11:53:04.348Z,18.42
2023-03-06T11:55:08.560Z,20.85
2023-03-06T11:57:17.863Z,23.80
2023-03-06T11:59:46.364Z,21.08
2023-03-06T12:02:27.692Z,19.42
2023-03-06T12:04:53.730Z,18.98
2023-03-06T12:07:19.482Z,18.70
2023-03-06T12:09:33.822Z,18.95
2023-03-06T12:12:11.919Z,18.67
2023-03-06T12:14:40.863Z,14.15
2023-03-06T12:17:04.243Z,12.60
2023-03-06T12:19:30.006Z,10.25
2023-03-06T12:21:46.468Z,9.90
2023-03-06T12:24:09.779Z,10.50
2023-03-06T12:26:36.231Z,9.73
2023-03-06T12:28:45.983Z,9.85
2023-03-06T12:31:02.661Z,12.07
2023-03-06T12:33:19.289Z,10.07
2023-03-06T12:35:44.638Z,12.50
2023-03-06T12:37:58.029Z,16.38
2023-03-06T12:40:40.832Z,14.95
2023-03-06T12:43:03.119Z,15.80
2023-03-06T12:45:30.412Z,21.42
2023-03-06T12:47:37.855Z,17.45
2023-03-06T12:49:43.622Z,17.38
2023-03-06T12:51:45.957Z,24.08
2023-03-06T12:53:49.761Z,15.10
2023-03-06T12:55:51.908Z,26.42
2023-03-06T12:57:53.642Z,20.50
2023-03-06T12:59:55.115Z,36.50
2023-03-06T13:02:11.820Z,23.75
2023-03-06T13:04:35.185Z,36.17
2023-03-06T13:06:50.835Z,24.45
2023-03-06T13:09:20.277Z,24.90
2023-03-06T13:11:56.220Z,24.70
2023-03-06T13:13:57.705Z,27.98
2023-03-06T13:16:12.344Z,17.15
2023-03-06T13:18:23.348Z,17.45
2023-03-06T13:20:35.138Z,18.40
2023-03-06T13:22:37.099Z,35.30
2023-03-06T13:24:38.611Z,19.45
2023-03-06T13:26:39.990Z,48.55
2023-03-06T13:28:43.266Z,24.65
2023-03-06T13:30:45.790Z,23.90
2023-03-06T13:32:48.556Z,29.58
2023-03-06T13:34:50.188Z,37.60
2023-03-06T13:36:51.949Z,32.40
2023-03-06T13:39:12.951Z,38.22
2023-03-06T13:41:20.697Z,24.45
2023-03-06T13:43:22.334Z,24.73
2023-03-06T13:45:34.382Z,27.70
2023-03-06T13:48:05.805Z,88.22
2023-03-06T13:50:12.952Z,32.53
2023-03-06T13:52:54.245Z,19.50
2023-03-06T13:55:03.619Z,19.98
2023-03-06T13:57:25.513Z,23.83
2023-03-06T14:00:08.093Z,64.32
2023-03-06T14:02:49.466Z,22.00
2023-03-06T14:04:57.510Z,17.00
2023-03-06T14:06:58.975Z,20.50
2023-03-06T14:09:03.813Z,39.47
2023-03-06T14:11:20.640Z,45.58
2023-03-06T14:13:35.110Z,27.70
2023-03-06T14:15:44.866Z,31.98
2023-03-06T14:18:14.615Z,30.70
2023-03-06T14:20:18.796Z,30.10
2023-03-06T14:22:24.674Z,32.75
2023-03-06T14:24:36.677Z,34.47
2023-03-06T14:26:45.420Z,26.70
2023-03-06T14:28:52.808Z,38.83
2023-03-06T14:30:55.790Z,78.03
2023-03-06T14:32:57.324Z,70.10
2023-03-06T14:34:58.888Z,42.20
2023-03-06T14:37:03.105Z,61.67
2023-03-06T14:39:28.662Z,37.53
2023-03-06T14:41:33.510Z,58.72
2023-03-06T14:43:34.938Z,59.72
2023-03-06T14:45:36.538Z,52.83
2023-03-06T14:47:38.212Z,43.85
2023-03-06T14:49:39.611Z,75.80
2023-03-06T14:51:44.235Z,34.88
2023-03-06T14:53:48.632Z,42.17
2023-03-06T14:56:00.004Z,37.45
2023-03-06T14:58:07.764Z,42.30
2023-03-06T15:00:18.114Z,62.53
2023-03-06T15:02:23.004Z,57.15
2023-03-06T15:04:44.960Z,63.78
2023-03-06T15:06:46.608Z,43.10
2023-03-06T15:09:02.688Z,40.00
2023-03-06T15:11:06.926Z,43.25
2023-03-06T15:13:21.134Z,74.60
2023-03-06T15:17:27.083Z,50.80
2023-03-06T15:19:28.490Z,38.45
2023-03-06T15:21:38.152Z,33.60
2023-03-06T15:23:42.450Z,39.83
2023-03-06T15:25:56.177Z,61.05
2023-03-06T15:28:03.368Z,150.95
2023-03-06T15:30:26.802Z,171.43
2023-03-06T15:32:32.651Z,29.93
2023-03-06T15:34:34.139Z,26.45
2023-03-06T15:36:43.497Z,26.73
2023-03-06T15:38:46.420Z,29.67
2023-03-06T15:40:59.330Z,40.88
2023-03-06T15:43:00.974Z,37.20
2023-03-06T15:45:16.789Z,33.50
2023-03-06T15:47:18.959Z,30.02
2023-03-06T15:49:20.445Z,31.98
2023-03-06T15:51:21.986Z,155.65
2023-03-06T15:53:23.611Z,92.28
2023-03-06T15:55:26.088Z,130.82
2023-03-06T15:57:28.177Z,152.68
2023-03-06T15:59:30.676Z,127.53
2023-03-06T16:01:32.207Z,94.55
2023-03-06T16:03:33.777Z,74.88
2023-03-06T16:05:35.291Z,64.38
2023-03-06T16:07:36.767Z,52.65
2023-03-06T16:09:38.313Z,56.05
2023-03-06T16:11:43.948Z,43.60
2023-03-06T16:13:46.137Z,35.33
2023-03-06T16:15:50.250Z,35.80
2023-03-06T16:17:51.723Z,37.47
2023-03-06T16:19:53.198Z,44.33
2023-03-06T16:21:56.178Z,58.00
2023-03-06T16:23:57.886Z,53.60
2023-03-06T16:25:59.455Z,50.63
2023-03-06T16:28:02.061Z,44.03
2023-03-06T16:30:04.725Z,45.30
2023-03-06T16:32:06.648Z,45.67
2023-03-06T16:34:08.075Z,38.30
2023-03-06T16:36:13.264Z,34.88
2023-03-06T16:38:14.862Z,33.90
2023-03-06T16:40:26.086Z,41.30
2023-03-06T16:42:27.828Z,36.35
2023-03-06T16:44:29.298Z,35.00
2023-03-06T16:46:30.831Z,32.60
2023-03-06T16:48:32.711Z,38.28
2023-03-06T16:50:38.767Z,47.35
2023-03-06T16:52:40.151Z,42.25
2023-03-06T16:54:43.622Z,37.05
2023-03-06T16:56:46.407Z,38.63
2023-03-06T16:58:48.249Z,39.70
2023-03-06T17:00:49.865Z,38.17
2023-03-06T17:02:52.570Z,36.35
2023-03-06T17:04:54.008Z,49.57
2023-03-06T17:06:55.512Z,48.38
2023-03-06T17:08:57.166Z,41.33
2023-03-06T17:10:58.594Z,53.47
2023-03-06T17:13:00.317Z,43.20
2023-03-06T17:15:02.534Z,62.55
2023-03-06T17:17:04.227Z,65.00
2023-03-06T17:19:06.459Z,90.18
2023-03-06T17:21:08.627Z,85.90
2023-03-06T17:23:10.027Z,128.65
2023-03-06T17:25:11.645Z,134.23
2023-03-06T17:27:13.099Z,99.97
2023-03-06T17:29:15.103Z,83.88
2023-03-06T17:31:19.247Z,83.45
2023-03-06T17:33:20.767Z,80.90
2023-03-06T17:35:22.191Z,50.58
2023-03-06T17:37:23.851Z,45.45
2023-03-06T17:39:25.472Z,44.17
2023-03-06T17:41:27.086Z,43.35
2023-03-06T17:43:28.708Z,54.33
2023-03-06T17:45:30.195Z,45.25
2023-03-06T17:47:31.634Z,42.22
2023-03-06T17:49:33.227Z,36.58
2023-03-06T17:51:34.825Z,37.97
2023-03-06T17:53:37.565Z,56.35
2023-03-06T17:55:39.135Z,64.80
2023-03-06T17:57:40.604Z,68.80
2023-03-06T17:59:42.012Z,64.80
2023-03-06T18:01:43.535Z,60.45
2023-03-06T18:03:47.369Z,42.85
2023-03-06T18:05:59.061Z,41.28
2023-03-06T18:08:00.614Z,39.83
2023-03-06T18:10:02.205Z,46.92
2023-03-06T18:12:03.892Z,48.90
2023-03-06T18:14:05.655Z,52.22
2023-03-06T18:16:09.125Z,55.42
2023-03-06T18:18:10.549Z,74.93
2023-03-06T18:20:12.438Z,71.82
2023-03-06T18:22:14.132Z,154.82
2023-03-06T18:24:15.517Z,95.22
2023-03-06T18:26:20.225Z,63.13
2023-03-06T18:28:21.834Z,67.20
2023-03-06T18:30:23.420Z,60.83
2023-03-06T18:32:25.151Z,59.47
2023-03-06T18:34:26.710Z,56.30
2023-03-06T18:36:31.390Z,58.97
2023-03-06T18:38:33.161Z,62.08
2023-03-06T18:40:34.627Z,61.22
2023-03-06T18:42:36.019Z,53.58
2023-03-06T18:44:37.651Z,49.50
2023-03-06T18:46:39.182Z,51.20
2023-03-06T18:48:40.612Z,50.00
2023-03-06T18:50:42.070Z,50.78
2023-03-06T18:52:43.988Z,58.92
2023-03-06T18:54:45.589Z,51.17
2023-03-06T18:56:46.996Z,125.43
2023-03-06T18:58:49.026Z,53.70
2023-03-06T19:00:50.680Z,52.70
2023-03-06T19:02:52.147Z,95.72
2023-03-06T19:04:53.740Z,83.25
2023-03-06T19:06:55.418Z,95.88
2023-03-06T19:08:57.352Z,68.55
2023-03-06T19:11:05.995Z,97.68
2023-03-06T19:13:08.625Z,79.90
2023-03-06T19:15:10.381Z,64.55
2023-03-06T19:17:11.979Z,135.52
2023-03-06T19:19:13.664Z,266.63
2023-03-06T19:21:18.337Z,59.80
2023-03-06T19:23:20.615Z,117.55
2023-03-06T19:25:22.075Z,221.68
2023-03-06T19:27:23.491Z,85.30
2023-03-06T19:29:25.083Z,67.95
2023-03-06T19:31:27.780Z,104.30
2023-03-06T19:33:29.253Z,66.97
2023-03-06T19:35:30.823Z,67.85
2023-03-06T19:37:32.616Z,60.45
2023-03-06T19:39:34.010Z,65.78
2023-03-06T19:41:35.561Z,78.00
2023-03-06T19:43:37.531Z,57.70
2023-03-06T19:45:42.488Z,56.15
2023-03-06T19:47:44.062Z,65.18
2023-03-06T19:49:45.622Z,66.05
2023-03-06T19:51:47.095Z,77.70
2023-03-06T19:53:48.602Z,83.95
2023-03-06T19:55:50.075Z,72.85
2023-03-06T19:57:53.013Z,93.75
2023-03-06T19:59:54.508Z,75.57
2023-03-06T20:01:56.034Z,87.72
2023-03-06T20:03:58.359Z,75.18
2023-03-06T20:06:03.587Z,82.20
2023-03-06T20:08:05.216Z,96.05
2023-03-06T20:10:07.108Z,72.20
2023-03-06T20:12:08.784Z,76.15
2023-03-06T20:14:11.683Z,104.10
2023-03-06T20:16:13.364Z,86.68
2023-03-06T20:18:15.187Z,64.78
2023-03-06T20:20:16.681Z,60.47
2023-03-06T20:22:18.088Z,85.97
2023-03-06T20:24:19.684Z,66.70
2023-03-06T20:26:21.262Z,65.28
2023-03-06T20:28:23.204Z,63.05
2023-03-06T20:30:26.436Z,68.55
2023-03-06T20:32:31.053Z,60.33
2023-03-06T20:34:32.495Z,58.85
2023-03-06T20:36:39.790Z,58.85
2023-03-06T20:38:41.287Z,57.90
2023-03-06T20:40:43.448Z,60.88
2023-03-06T20:42:44.977Z,56.53
2023-03-06T20:44:46.405Z,64.85
2023-03-06T20:46:47.889Z,58.50
2023-03-06T20:48:51.323Z,55.88
2023-03-06T20:51:03.135Z,60.45
2023-03-06T20:53:04.555Z,64.18
2023-03-06T20:55:06.666Z,62.60
2023-03-06T20:57:08.346Z,65.22
2023-03-06T20:59:11.847Z,56.30
2023-03-06T21:03:28.487Z,55.35
2023-03-06T21:05:29.868Z,58.28
2023-03-06T21:07:31.234Z,64.75
2023-03-06T21:09:32.742Z,68.35
2023-03-06T21:11:35.197Z,61.40
2023-03-06T21:13:36.780Z,61.08
2023-03-06T21:15:39.674Z,57.97
2023-03-06T21:17:41.066Z,56.38
2023-03-06T21:19:42.628Z,58.88
2023-03-06T21:21:44.301Z,58.50
2023-03-06T21:23:46.896Z,58.92
2023-03-06T21:25:50.260Z,57.30
2023-03-06T21:27:51.884Z,53.78
2023-03-06T21:29:53.319Z,56.45
2023-03-06T21:31:54.996Z,55.85
2023-03-06T21:33:57.221Z,55.95
2023-03-06T21:35:58.659Z,57.60
2023-03-06T21:38:00.264Z,58.13
2023-03-06T21:40:02.036Z,56.58
2023-03-06T21:42:03.458Z,70.18
2023-03-06T21:44:06.249Z,85.90
2023-03-06T21:46:07.879Z,88.43
2023-03-06T21:48:09.723Z,78.05
2023-03-06T21:50:11.953Z,72.13
2023-03-06T21:52:13.542Z,96.57
2023-03-06T21:54:14.941Z,85.03
2023-03-06T21:56:18.815Z,85.85
2023-03-06T21:58:20.437Z,87.43
2023-03-06T22:00:22.192Z,85.90
2023-03-06T22:02:23.848Z,69.07
2023-03-06T22:04:25.520Z,73.57
2023-03-06T22:06:28.961Z,92.78
2023-03-06T22:08:30.423Z,81.28
2023-03-06T22:10:31.887Z,114.05
2023-03-06T22:12:34.110Z,90.82
2023-03-06T22:14:35.630Z,118.18
2023-03-06T22:16:37.126Z,125.10
2023-03-06T22:18:39.125Z,80.30
2023-03-06T22:20:40.694Z,85.93
2023-03-06T22:22:42.266Z,86.13
2023-03-06T22:24:43.676Z,67.68
2023-03-06T22:26:45.518Z,65.28
2023-03-06T22:28:47.012Z,75.18
2023-03-06T22:30:48.408Z,60.70
2023-03-06T22:32:52.495Z,67.95
2023-03-06T22:34:53.994Z,69.13
2023-03-06T22:36:55.508Z,79.97
2023-03-06T22:38:59.992Z,96.35
2023-03-06T22:41:01.663Z,90.95
2023-03-06T22:43:03.081Z,63.30
2023-03-06T22:45:04.964Z,70.65
2023-03-06T22:47:06.537Z,83.40
2023-03-06T22:49:10.628Z,98.30
2023-03-06T22:51:15.087Z,97.07
2023-03-06T22:53:16.681Z,116.57
2023-03-06T22:55:18.065Z,115.22
2023-03-06T22:57:19.595Z,94.80
2023-03-06T22:59:21.092Z,111.53
2023-03-06T23:01:34.001Z,127.43
2023-03-06T23:03:37.554Z,121.32
2023-03-06T23:07:43.287Z,128.30
2023-03-06T23:09:44.908Z,125.45
2023-03-06T23:11:46.928Z,99.57
2023-03-06T23:13:48.416Z,76.70
2023-03-06T23:15:50.065Z,68.90
2023-03-06T23:17:51.602Z,68.78
2023-03-06T23:19:53.090Z,64.45
2023-03-06T23:21:54.654Z,58.20
2023-03-06T23:23:56.566Z,54.85
2023-03-06T23:26:00.874Z,54.78
2023-03-06T23:28:03.056Z,82.18
2023-03-06T23:30:07.879Z,79.55
2023-03-06T23:32:09.353Z,69.07
2023-03-06T23:34:10.900Z,68.75
2023-03-06T23:36:14.490Z,78.28
2023-03-06T23:40:17.574Z,61.00
2023-03-06T23:42:19.220Z,56.75
2023-03-06T23:44:20.607Z,49.97
2023-03-06T23:46:22.655Z,50.47
2023-03-06T23:48:24.494Z,50.80
2023-03-06T23:50:25.924Z,50.45
2023-03-06T23:52:27.318Z,52.05
2023-03-06T23:54:28.802Z,53.08
2023-03-06T23:56:30.224Z,52.13
2023-03-06T23:58:32.547Z,51.05
